Time;durP1;ratioP1;P1;durP2;ratioP2;P2;SDS_P1;SDS_P2;PMS_P1;PMS_P2;Temp;Humidity;BMP_temperature;BMP_pressure;BME280_temperature;BME280_humidity;BME280_pressure;Samples;Min_cycle;Max_cycle;Signal;HPM_P1;HPM_P2
2022/08/24 00:02:24;;;;;;;7.25;5.50;;;;;;;17.97;100.00;101727.81;5205615;28;20025;-72
2022/08/24 00:04:54;;;;;;;9.57;5.97;;;;;;;17.99;100.00;101721.19;5203804;28;20037;-73
2022/08/24 00:07:25;;;;;;;7.03;5.30;;;;;;;18.04;100.00;101716.00;5205579;28;20452;-72
2022/08/24 00:09:57;;;;;;;9.25;5.53;;;;;;;18.09;100.00;101720.84;5205196;28;20085;-73
2022/08/24 00:12:27;;;;;;;10.10;5.35;;;;;;;18.08;100.00;101733.59;5203890;28;20040;-73
2022/08/24 00:14:59;;;;;;;9.88;6.07;;;;;;;18.05;100.00;101730.41;5204512;28;20029;-73
2022/08/24 00:17:29;;;;;;;7.40;5.63;;;;;;;18.01;100.00;101731.84;5205136;28;20024;-71
2022/08/24 00:20:01;;;;;;;6.95;5.55;;;;;;;17.98;100.00;101737.66;5204257;28;20037;-72
2022/08/24 00:22:31;;;;;;;10.60;5.82;;;;;;;17.94;100.00;101733.66;5205170;28;20053;-72
2022/08/24 00:25:02;;;;;;;10.45;5.80;;;;;;;17.89;100.00;101736.94;5204328;28;20060;-72
2022/08/24 00:27:33;;;;;;;8.40;5.82;;;;;;;17.82;100.00;101727.88;5201173;28;20447;-72
2022/08/24 00:30:08;;;;;;;9.02;6.35;;;;;;;17.77;100.00;101727.59;5197313;28;20048;-72
2022/08/24 00:32:38;;;;;;;8.07;5.50;;;;;;;17.73;100.00;101719.03;5199444;28;20472;-71
2022/08/24 00:35:11;;;;;;;7.70;5.00;;;;;;;17.79;100.00;101725.56;5203950;28;20037;-72
2022/08/24 00:37:41;;;;;;;11.52;4.72;;;;;;;17.82;100.00;101717.88;5204763;28;20029;-72
2022/08/24 00:40:18;;;;;;;8.05;4.95;;;;;;;17.81;100.00;101724.31;5204636;28;20107;-72
2022/08/24 00:42:49;;;;;;;7.28;4.45;;;;;;;17.75;100.00;101722.38;5204320;28;20045;-72
2022/08/24 00:45:23;;;;;;;7.32;4.30;;;;;;;17.68;100.00;101726.03;5204027;28;20372;-72
2022/08/24 00:47:58;;;;;;;7.80;4.90;;;;;;;17.63;100.00;101718.47;5204753;28;20028;-72
2022/08/24 00:50:52;;;;;;;9.10;4.97;;;;;;;17.58;100.00;101723.63;5204317;28;20053;-74
2022/08/24 00:53:44;;;;;;;6.38;4.63;;;;;;;17.53;100.00;101718.78;5204146;28;20517;-74
2022/08/24 00:56:20;;;;;;;8.02;5.00;;;;;;;17.47;100.00;101718.69;5191801;28;20014;-74
2022/08/24 00:58:55;;;;;;;8.15;5.10;;;;;;;17.45;100.00;101718.03;5204325;28;20139;-74
2022/08/24 01:01:27;;;;;;;8.38;5.43;;;;;;;17.41;100.00;101714.03;5204070;28;20027;-73
2022/08/24 01:03:58;;;;;;;9.98;6.05;;;;;;;17.37;100.00;101710.00;5204132;28;20018;-73
2022/08/24 01:06:30;;;;;;;8.95;5.70;;;;;;;17.33;100.00;101709.56;5203954;28;20122;-73
2022/08/24 01:09:01;;;;;;;10.63;5.80;;;;;;;17.29;100.00;101717.22;5204179;28;20475;-73
2022/08/24 01:11:34;;;;;;;7.85;4.75;;;;;;;17.27;100.00;101711.16;5204933;28;20207;-73
2022/08/24 01:14:05;;;;;;;448.40;18.80;;;;;;;17.18;100.00;101708.75;5203625;28;20037;-73
2022/08/24 01:19:34;;;;;;;4.60;3.20;;;;;;;16.97;100.00;101718.47;5203642;28;20025;-73
2022/08/24 01:22:32;;;;;;;17.88;3.83;;;;;;;16.89;100.00;101723.16;5203941;28;20025;-73
2022/08/24 01:25:04;;;;;;;11.98;5.40;;;;;;;16.81;100.00;101716.78;5203293;28;20029;-73
2022/08/24 01:27:36;;;;;;;11.15;6.00;;;;;;;16.77;100.00;101712.78;5204345;28;20074;-74
2022/08/24 01:30:10;;;;;;;8.45;5.75;;;;;;;16.76;100.00;101712.94;5196185;28;20017;-74
2022/08/24 01:32:50;;;;;;;9.45;5.90;;;;;;;16.72;100.00;101717.91;5203373;28;20118;-73
2022/08/24 01:35:21;;;;;;;8.18;5.75;;;;;;;16.69;100.00;101714.69;5203012;28;20079;-73
2022/08/24 01:37:55;;;;;;;8.25;4.95;;;;;;;16.66;100.00;101718.59;5203791;28;20422;-75
2022/08/24 01:40:34;;;;;;;9.77;7.13;;;;;;;16.66;100.00;101725.88;5204312;28;20080;-74
2022/08/24 01:43:06;;;;;;;9.80;6.35;;;;;;;16.65;100.00;101721.50;5203499;28;20391;-74
2022/08/24 01:45:37;;;;;;;8.68;5.72;;;;;;;16.65;100.00;101726.91;5202936;28;20364;-74
2022/08/24 01:48:08;;;;;;;8.85;6.57;;;;;;;16.67;100.00;101719.47;5203524;28;20072;-75
2022/08/24 01:50:39;;;;;;;9.57;5.88;;;;;;;16.70;100.00;101719.91;5203057;28;20083;-73
2022/08/24 01:53:09;;;;;;;10.50;5.82;;;;;;;16.74;100.00;101712.28;5203300;28;20065;-74
2022/08/24 01:55:49;;;;;;;8.32;4.90;;;;;;;16.75;100.00;101714.81;5202624;28;20033;-74
2022/08/24 01:58:20;;;;;;;11.88;6.85;;;;;;;16.74;100.00;101710.44;5203523;28;20033;-75
2022/08/24 02:00:51;;;;;;;11.27;6.43;;;;;;;16.73;100.00;101719.59;5203311;28;20333;-75
2022/08/24 02:03:35;;;;;;;12.83;6.67;;;;;;;16.70;100.00;101717.19;5203653;28;20025;-75
2022/08/24 02:06:06;;;;;;;29.20;6.05;;;;;;;16.64;100.00;101717.94;5202625;28;20021;-75
2022/08/24 02:08:37;;;;;;;134.52;8.55;;;;;;;16.55;100.00;101717.19;5203436;28;20057;-75
2022/08/24 02:11:25;;;;;;;111.82;7.90;;;;;;;16.44;100.00;101720.34;5203533;28;20359;-75
2022/08/24 02:14:01;;;;;;;7.45;4.60;;;;;;;16.36;100.00;101723.13;5203229;28;20109;-75
2022/08/24 02:16:33;;;;;;;6.50;4.72;;;;;;;16.36;100.00;101724.97;5202763;28;20033;-74
2022/08/24 02:19:05;;;;;;;8.75;5.55;;;;;;;16.37;100.00;101724.81;5202949;28;20029;-76
2022/08/24 02:21:36;;;;;;;7.93;4.80;;;;;;;16.39;100.00;101730.88;5203180;28;20075;-73
2022/08/24 02:24:07;;;;;;;8.90;5.65;;;;;;;16.39;100.00;101727.34;5202973;28;20026;-74
2022/08/24 02:26:37;;;;;;;8.30;5.75;;;;;;;16.38;100.00;101726.50;5203072;28;20028;-74
2022/08/24 02:29:08;;;;;;;8.57;5.40;;;;;;;16.37;100.00;101734.81;5204731;28;20427;-74
2022/08/24 02:31:38;;;;;;;7.55;5.22;;;;;;;16.35;100.00;101731.44;5205757;28;20144;-74
2022/08/24 02:34:09;;;;;;;7.15;5.15;;;;;;;16.35;100.00;101726.84;5206510;28;20036;-75
2022/08/24 02:36:40;;;;;;;7.95;4.97;;;;;;;16.37;100.00;101730.25;5206047;28;20029;-73
2022/08/24 02:39:10;;;;;;;6.32;4.82;;;;;;;16.36;100.00;101722.28;5206981;28;20079;-74
2022/08/24 02:41:41;;;;;;;11.00;5.30;;;;;;;16.33;100.00;101723.50;5207646;28;20029;-74
2022/08/24 02:44:11;;;;;;;9.90;5.50;;;;;;;16.31;100.00;101726.41;5206440;28;20040;-73
2022/08/24 02:46:42;;;;;;;5.30;4.10;;;;;;;16.33;100.00;101731.63;5206177;28;20407;-75
2022/08/24 02:49:13;;;;;;;5.43;4.03;;;;;;;16.32;100.00;101727.25;5206509;28;20391;-75
2022/08/24 02:51:45;;;;;;;12.50;5.32;;;;;;;16.30;100.00;101727.41;5207387;28;20071;-74
2022/08/24 02:54:17;;;;;;;6.95;5.10;;;;;;;16.29;100.00;101728.44;5204929;28;20037;-74
2022/08/24 02:56:48;;;;;;;7.85;5.32;;;;;;;16.26;100.00;101736.91;5206844;28;20104;-74
2022/08/24 02:59:18;;;;;;;11.40;5.85;;;;;;;16.24;100.00;101732.72;5206663;28;20112;-74
2022/08/24 03:01:49;;;;;;;7.72;5.47;;;;;;;16.23;100.00;101733.75;5206737;28;20099;-75
2022/08/24 03:04:20;;;;;;;10.05;5.55;;;;;;;16.21;100.00;101735.78;5205718;28;20029;-75
2022/08/24 03:06:51;;;;;;;7.75;4.65;;;;;;;16.16;100.00;101730.06;5207037;28;20033;-75
2022/08/24 03:09:22;;;;;;;7.72;5.20;;;;;;;16.14;100.00;101730.25;5206638;28;20029;-74
2022/08/24 03:11:52;;;;;;;7.15;5.00;;;;;;;16.13;100.00;101725.03;5206469;28;20056;-74
2022/08/24 03:14:23;;;;;;;7.75;5.40;;;;;;;16.08;100.00;101720.16;5205818;28;20116;-75
2022/08/24 03:16:53;;;;;;;58.50;5.95;;;;;;;16.04;100.00;101724.25;5205549;28;20029;-74
2022/08/24 03:19:24;;;;;;;7.75;5.40;;;;;;;15.97;100.00;101721.44;5206118;28;20360;-74
2022/08/24 03:21:56;;;;;;;7.55;5.13;;;;;;;15.93;100.00;101722.81;5206463;28;20025;-74
2022/08/24 03:24:27;;;;;;;7.97;4.78;;;;;;;15.90;100.00;101719.59;5205775;28;20108;-75
2022/08/24 03:26:57;;;;;;;115.10;7.45;;;;;;;15.85;100.00;101719.31;5206413;28;20124;-76
2022/08/24 03:29:28;;;;;;;5.65;3.47;;;;;;;15.77;100.00;101709.41;5205254;28;20356;-76
2022/08/24 03:31:58;;;;;;;59.72;5.53;;;;;;;15.73;100.00;101711.59;5206073;28;20021;-75
2022/08/24 03:34:29;;;;;;;7.32;4.35;;;;;;;15.72;100.00;101704.53;5205309;28;20547;-75
2022/08/24 03:36:59;;;;;;;6.40;4.15;;;;;;;15.72;100.00;101712.63;5206170;28;20060;-74
2022/08/24 03:39:30;;;;;;;7.05;4.43;;;;;;;15.75;100.00;101712.25;5204787;28;20045;-74
2022/08/24 03:42:00;;;;;;;6.70;4.90;;;;;;;15.82;100.00;101720.53;5205075;28;20710;-75
2022/08/24 03:44:31;;;;;;;5.95;4.25;;;;;;;15.84;100.00;101714.91;5205232;28;20109;-75
2022/08/24 03:47:02;;;;;;;9.45;4.97;;;;;;;15.80;100.00;101715.28;5204319;28;20029;-75
2022/08/24 03:49:32;;;;;;;6.85;4.82;;;;;;;15.79;100.00;101719.00;5205618;28;20040;-75
2022/08/24 03:52:05;;;;;;;8.35;5.10;;;;;;;15.77;100.00;101712.09;5205502;28;20025;-76
2022/08/24 03:54:35;;;;;;;9.23;5.40;;;;;;;15.76;100.00;101711.25;5204785;28;20538;-74
2022/08/24 03:57:06;;;;;;;9.05;5.38;;;;;;;15.75;100.00;101706.84;5202983;28;20112;-75
2022/08/24 03:59:36;;;;;;;8.07;4.93;;;;;;;15.75;100.00;101714.13;5195285;28;20029;-75
2022/08/24 04:02:08;;;;;;;7.05;4.75;;;;;;;15.73;100.00;101711.59;5205562;28;20109;-75
2022/08/24 04:04:38;;;;;;;6.05;4.18;;;;;;;15.71;100.00;101724.47;5204925;28;20025;-74
2022/08/24 04:07:09;;;;;;;6.05;4.40;;;;;;;15.69;100.00;101718.38;5204959;28;20379;-74
2022/08/24 04:09:39;;;;;;;9.18;5.07;;;;;;;15.66;100.00;101716.06;5205469;28;20029;-74
2022/08/24 04:12:10;;;;;;;6.82;4.53;;;;;;;15.64;100.00;101726.19;5205764;28;20493;-75
2022/08/24 04:14:40;;;;;;;7.60;4.40;;;;;;;15.61;100.00;101718.41;5204804;28;20021;-76
2022/08/24 04:17:11;;;;;;;3.70;2.50;;;;;;;15.58;100.00;101724.19;5203880;28;20075;-74
2022/08/24 04:19:56;;;;;;;8.63;3.55;;;;;;;15.54;100.00;101722.84;5205002;28;20022;-75
2022/08/24 04:22:29;;;;;;;10.40;4.93;;;;;;;15.49;100.00;101727.94;5205624;28;20057;-75
2022/08/24 04:24:59;;;;;;;11.20;5.78;;;;;;;15.44;100.00;101728.47;5204477;28;20064;-75
2022/08/24 04:27:30;;;;;;;7.15;4.57;;;;;;;15.38;100.00;101740.00;5201955;28;20033;-75
2022/08/24 04:30:02;;;;;;;6.53;3.97;;;;;;;15.33;100.00;101728.88;5203726;28;20426;-75
2022/08/24 04:32:34;;;;;;;8.20;4.95;;;;;;;15.33;100.00;101725.34;5205146;28;20026;-76
2022/08/24 04:35:05;;;;;;;10.43;6.00;;;;;;;15.31;100.00;101727.34;5204221;28;20036;-76
2022/08/24 04:37:35;;;;;;;13.65;7.18;;;;;;;15.29;100.00;101731.06;5205225;28;20382;-74
2022/08/24 04:40:07;;;;;;;10.07;6.13;;;;;;;15.29;100.00;101730.25;5204528;28;20030;-73
2022/08/24 04:42:38;;;;;;;11.02;6.40;;;;;;;15.29;100.00;101728.38;5204965;28;20112;-74
2022/08/24 04:45:08;;;;;;;10.85;7.32;;;;;;;15.31;100.00;101727.34;5204279;28;20116;-74
2022/08/24 04:47:39;;;;;;;11.50;6.57;;;;;;;15.32;100.00;101734.47;5204482;28;20029;-76
2022/08/24 04:50:10;;;;;;;10.98;5.82;;;;;;;15.33;100.00;101728.88;5204720;28;20026;-76
2022/08/24 04:52:40;;;;;;;13.95;6.53;;;;;;;15.34;100.00;101732.41;5203651;28;20509;-75
2022/08/24 04:55:11;;;;;;;9.88;6.85;;;;;;;15.35;100.00;101737.63;5202655;28;20018;-74
2022/08/24 04:57:41;;;;;;;16.92;7.03;;;;;;;15.35;100.00;101734.09;5204636;28;20092;-75
2022/08/24 05:00:12;;;;;;;7.50;4.95;;;;;;;15.37;100.00;101742.88;5203999;28;20049;-74
2022/08/24 05:02:43;;;;;;;8.05;4.43;;;;;;;15.37;100.00;101738.31;5205052;28;20033;-74
2022/08/24 05:05:13;;;;;;;10.38;5.10;;;;;;;15.39;100.00;101741.69;5203221;28;20422;-75
2022/08/24 05:07:44;;;;;;;6.78;4.72;;;;;;;15.42;100.00;101733.22;5204386;28;20033;-75
2022/08/24 05:10:15;;;;;;;10.15;5.35;;;;;;;15.46;100.00;101739.09;5204013;28;20014;-75
2022/08/24 05:12:45;;;;;;;7.10;4.53;;;;;;;15.48;100.00;101747.91;5204286;28;20597;-75
2022/08/24 05:15:16;;;;;;;7.00;5.22;;;;;;;15.53;100.00;101748.22;5203382;28;20368;-76
2022/08/24 05:17:47;;;;;;;6.20;4.63;;;;;;;15.58;100.00;101745.81;5203673;28;20031;-75
2022/08/24 05:20:17;;;;;;;9.07;4.28;;;;;;;15.62;100.00;101747.16;5203662;28;20112;-73
2022/08/24 05:22:50;;;;;;;6.90;4.75;;;;;;;15.66;100.00;101756.63;5203983;28;20036;-73
2022/08/24 05:25:21;;;;;;;8.55;5.55;;;;;;;15.71;100.00;101754.25;5203564;28;20112;-73
2022/08/24 05:27:51;;;;;;;6.93;4.85;;;;;;;15.77;100.00;101748.09;5199255;28;20429;-73
2022/08/24 05:30:22;;;;;;;12.18;6.22;;;;;;;15.83;100.00;101753.81;5203140;28;20029;-73
2022/08/24 05:32:53;;;;;;;8.10;4.80;;;;;;;15.86;100.00;101758.84;5203776;28;20016;-73
2022/08/24 05:35:23;;;;;;;10.13;5.63;;;;;;;15.88;100.00;101757.69;5202958;28;20044;-73
2022/08/24 05:37:54;;;;;;;9.45;5.70;;;;;;;15.93;100.00;101754.44;5203535;28;20036;-73
2022/08/24 05:40:24;;;;;;;10.07;6.38;;;;;;;16.03;100.00;101760.47;5203314;28;20491;-73
2022/08/24 05:42:56;;;;;;;10.20;6.85;;;;;;;16.15;100.00;101761.72;5203482;28;20150;-72
2022/08/24 05:45:26;;;;;;;12.27;6.30;;;;;;;16.23;100.00;101761.66;5202752;28;20021;-73
2022/08/24 05:47:57;;;;;;;12.32;6.38;;;;;;;16.33;100.00;101758.69;5203674;28;20475;-72
2022/08/24 05:50:27;;;;;;;11.32;6.90;;;;;;;16.46;100.00;101768.91;5203555;28;20025;-72
2022/08/24 05:52:58;;;;;;;14.40;7.57;;;;;;;16.62;100.00;101755.22;5202944;28;20088;-73
2022/08/24 05:55:29;;;;;;;14.48;9.18;;;;;;;17.09;100.00;101763.06;5202691;28;20108;-72
2022/08/24 05:58:00;;;;;;;13.32;8.35;;;;;;;17.86;100.00;101756.31;5203500;28;20101;-73
2022/08/24 06:00:32;;;;;;;14.43;7.40;;;;;;;18.62;100.00;101759.31;5203373;28;20417;-73
2022/08/24 06:03:02;;;;;;;11.15;6.63;;;;;;;19.31;100.00;101755.81;5203104;28;20033;-73
2022/08/24 06:05:37;;;;;;;10.50;7.60;;;;;;;19.89;100.00;101768.00;5202384;28;20041;-73
2022/08/24 06:08:08;;;;;;;8.75;6.40;;;;;;;20.56;100.00;101768.97;5203859;28;20113;-73
2022/08/24 06:10:42;;;;;;;9.60;6.80;;;;;;;21.19;100.00;101768.47;5204467;28;20026;-72
2022/08/24 06:13:13;;;;;;;8.82;6.05;;;;;;;21.70;100.00;101763.03;5204135;28;20103;-73
2022/08/24 06:15:44;;;;;;;15.13;7.20;;;;;;;22.20;100.00;101765.09;5203229;28;20438;-73
2022/08/24 06:18:14;;;;;;;15.50;7.45;;;;;;;22.66;100.00;101766.59;5203671;28;20060;-73
2022/08/24 06:20:44;;;;;;;14.57;9.23;;;;;;;23.14;100.00;101765.94;5203791;28;20037;-73
2022/08/24 06:23:15;;;;;;;11.77;8.35;;;;;;;23.82;100.00;101767.66;5203268;28;20105;-73
2022/08/24 06:28:35;;;;;;;14.48;8.73;;;;;;;24.67;100.00;101776.47;5198116;28;20495;-73
2022/08/24 06:31:06;;;;;;;14.25;9.70;;;;;;;24.79;100.00;101779.19;5203344;28;20317;-73
2022/08/24 06:33:37;;;;;;;18.83;13.15;;;;;;;24.86;100.00;101779.94;5203151;28;20471;-73
2022/08/24 06:36:07;;;;;;;27.30;16.73;;;;;;;25.03;100.00;101780.88;5202521;28;20075;-73
2022/08/24 06:38:38;;;;;;;24.52;17.17;;;;;;;25.44;100.00;101781.78;5202979;28;20044;-73
2022/08/24 06:41:09;;;;;;;30.65;18.55;;;;;;;25.56;100.00;101779.03;5202835;28;20480;-73
2022/08/24 06:43:40;;;;;;;34.90;20.23;;;;;;;25.79;100.00;101783.63;5202857;28;20108;-73
2022/08/24 06:46:10;;;;;;;35.65;21.08;;;;;;;25.96;100.00;101780.94;5201266;28;20563;-73
2022/08/24 06:48:41;;;;;;;26.77;18.80;;;;;;;26.21;100.00;101780.56;5202923;28;20108;-73
2022/08/24 06:51:15;;;;;;;28.23;20.40;;;;;;;26.62;100.00;101786.78;5202890;28;20039;-73
2022/08/24 06:53:45;;;;;;;32.47;22.63;;;;;;;26.91;100.00;101777.34;5202749;28;20689;-73
2022/08/24 06:56:17;;;;;;;30.20;20.17;;;;;;;27.28;100.00;101780.34;5202829;28;20443;-72
2022/08/24 06:58:47;;;;;;;25.42;19.80;;;;;;;27.58;100.00;101779.91;5202822;28;20029;-73
2022/08/24 07:01:23;;;;;;;30.95;21.13;;;;;;;27.83;100.00;101776.63;5202885;28;20541;-73
2022/08/24 07:03:53;;;;;;;32.42;22.52;;;;;;;28.17;100.00;101767.31;5202305;28;20035;-73
2022/08/24 07:06:24;;;;;;;33.40;21.63;;;;;;;28.56;100.00;101778.97;5202673;28;20026;-73
2022/08/24 07:08:55;;;;;;;33.70;24.35;;;;;;;28.87;100.00;101774.53;5202956;28;20033;-73
2022/08/24 07:11:26;;;;;;;37.67;24.50;;;;;;;28.64;100.00;101775.72;5202988;28;20128;-73
2022/08/24 07:13:56;;;;;;;38.40;24.73;;;;;;;28.10;100.00;101779.38;5202795;28;20047;-73
2022/08/24 07:16:27;;;;;;;38.72;26.35;;;;;;;27.50;100.00;101782.25;5206068;28;20032;-73
2022/08/24 07:18:58;;;;;;;41.40;27.80;;;;;;;26.84;100.00;101773.91;5206529;28;20053;-73
2022/08/24 07:21:28;;;;;;;38.65;25.55;;;;;;;26.37;100.00;101782.50;5206363;28;20025;-73
2022/08/24 07:24:01;;;;;;;34.15;23.38;;;;;;;26.38;100.00;101780.56;5206615;28;20037;-73
2022/08/24 07:26:31;;;;;;;42.65;27.35;;;;;;;26.37;100.00;101784.41;5205950;28;20025;-73
2022/08/24 07:29:07;;;;;;;38.35;25.42;;;;;;;26.66;100.00;101776.91;5201475;28;20044;-72
2022/08/24 07:31:39;;;;;;;39.08;25.52;;;;;;;27.28;100.00;101782.28;5206556;28;20370;-73
2022/08/24 07:34:10;;;;;;;36.08;23.83;;;;;;;27.64;100.00;101786.31;5205585;28;20025;-73
2022/08/24 07:36:40;;;;;;;45.38;24.48;;;;;;;27.91;100.00;101791.84;5206394;28;20501;-73
2022/08/24 07:39:11;;;;;;;39.75;25.55;;;;;;;27.82;100.00;101788.75;5205915;28;20022;-73
2022/08/24 07:41:43;;;;;;;38.05;25.73;;;;;;;27.58;100.00;101796.44;5206111;28;20044;-74
2022/08/24 07:44:14;;;;;;;39.40;23.83;;;;;;;27.44;100.00;101792.41;5205259;28;20017;-73
2022/08/24 07:46:45;;;;;;;34.40;24.00;;;;;;;27.75;100.00;101795.53;5204997;28;20426;-73
2022/08/24 07:49:15;;;;;;;38.83;23.35;;;;;;;28.13;100.00;101795.41;5205781;28;20022;-73
2022/08/24 07:51:47;;;;;;;38.30;22.40;;;;;;;28.63;100.00;101794.22;5205873;28;20021;-73
2022/08/24 07:54:19;;;;;;;93.43;26.92;;;;;;;28.48;100.00;101788.59;5204807;28;20033;-73
2022/08/24 07:56:49;;;;;;;41.35;21.75;;;;;;;28.14;100.00;101787.97;5205741;28;20026;-72
2022/08/24 07:59:21;;;;;;;36.80;23.33;;;;;;;27.68;100.00;101790.22;5205784;28;20033;-72
2022/08/24 08:01:52;;;;;;;37.03;21.80;;;;;;;27.28;100.00;101793.28;5205876;28;20503;-72
2022/08/24 08:04:23;;;;;;;32.30;21.23;;;;;;;27.05;100.00;101794.31;5204628;28;20051;-73
2022/08/24 08:06:55;;;;;;;32.03;21.83;;;;;;;26.83;100.00;101786.84;5205736;28;20104;-73
2022/08/24 08:09:26;;;;;;;34.83;21.35;;;;;;;26.94;100.00;101790.56;5204658;28;20367;-72
2022/08/24 08:11:56;;;;;;;32.05;20.92;;;;;;;27.08;100.00;101791.91;5205637;28;20454;-74
2022/08/24 08:14:27;;;;;;;33.38;20.70;;;;;;;27.09;100.00;101793.59;5204926;28;20116;-72
2022/08/24 08:16:58;;;;;;;27.48;18.42;;;;;;;27.29;100.00;101795.78;5199381;28;20060;-72
2022/08/24 08:19:29;;;;;;;31.65;21.35;;;;;;;27.43;100.00;101800.94;5198897;28;20033;-72
2022/08/24 08:24:49;;;;;;;27.00;19.00;;;;;;;27.04;100.00;101803.66;5201766;28;20422;-72
2022/08/24 08:27:20;;;;;;;32.10;18.15;;;;;;;26.81;100.00;101796.44;5193810;28;20025;-72
2022/08/24 08:29:51;;;;;;;27.73;17.58;;;;;;;26.69;100.00;101796.53;5203797;28;20029;-72
2022/08/24 08:32:22;;;;;;;27.52;18.17;;;;;;;26.50;100.00;101797.84;5205806;28;20418;-72
2022/08/24 08:34:53;;;;;;;30.33;17.98;;;;;;;26.26;100.00;101797.16;5203207;28;20057;-72
2022/08/24 08:37:24;;;;;;;23.13;16.42;;;;;;;26.17;100.00;101793.13;5205012;28;20091;-72
2022/08/24 08:39:55;;;;;;;28.98;16.65;;;;;;;26.00;100.00;101793.09;5204500;28;20029;-72
2022/08/24 08:42:41;;;;;;;22.40;14.77;;;;;;;26.00;100.00;101791.16;5204832;28;20441;-72
2022/08/24 08:45:32;;;;;;;27.50;15.68;;;;;;;26.20;100.00;101789.88;5204080;28;20484;-72
2022/08/24 08:48:03;;;;;;;22.17;13.77;;;;;;;26.55;100.00;101800.69;5204723;28;20025;-72
2022/08/24 08:50:54;;;;;;;26.77;15.63;;;;;;;26.74;100.00;101795.78;5204575;28;20032;-72
2022/08/24 08:53:58;;;;;;;22.08;15.75;;;;;;;26.84;100.00;101799.50;5204497;28;20037;-72
2022/08/24 08:57:02;;;;;;;24.88;14.38;;;;;;;26.79;100.00;101804.09;5194392;28;20025;-72
2022/08/24 08:59:34;;;;;;;30.00;14.65;;;;;;;26.65;100.00;101803.59;5192330;28;20078;-72
2022/08/24 09:02:29;;;;;;;26.02;13.85;;;;;;;26.57;100.00;101799.38;5204632;28;20026;-72
2022/08/24 09:05:12;;;;;;;22.20;14.50;;;;;;;26.45;100.00;101806.84;5203380;28;20116;-72
2022/08/24 09:08:09;;;;;;;21.45;14.70;;;;;;;26.42;100.00;101810.13;5204648;28;20068;-72
2022/08/24 09:10:59;;;;;;;22.73;16.13;;;;;;;26.65;100.00;101809.09;5191060;28;20458;-72
2022/08/24 09:14:05;;;;;;;24.50;14.77;;;;;;;27.09;100.00;101812.84;5203936;28;20041;-72
2022/08/24 09:16:48;;;;;;;24.70;13.98;;;;;;;27.56;100.00;101817.91;5204292;28;20021;-72
2022/08/24 09:19:32;;;;;;;31.17;15.80;;;;;;;27.63;100.00;101818.53;5204096;28;20029;-72
2022/08/24 09:22:17;;;;;;;23.10;14.82;;;;;;;27.59;100.00;101824.81;5204031;28;20373;-72
2022/08/24 09:25:04;;;;;;;24.05;15.40;;;;;;;27.47;100.00;101821.38;5203494;28;20040;-73
2022/08/24 09:28:12;;;;;;;21.40;14.55;;;;;;;27.24;100.00;101817.75;5199804;28;20026;-72
2022/08/24 09:31:06;;;;;;;19.08;13.13;;;;;;;27.07;100.00;101814.19;5195710;28;20108;-72
2022/08/24 09:33:44;;;;;;;18.13;13.77;;;;;;;26.96;100.00;101809.59;5189912;28;20021;-74
2022/08/24 09:36:44;;;;;;;23.83;13.02;;;;;;;26.92;100.00;101813.97;5191185;28;20060;-73
2022/08/24 09:39:34;;;;;;;22.95;13.25;;;;;;;26.94;100.00;101818.09;5201315;28;20025;-73
2022/08/24 09:42:42;;;;;;;21.35;13.00;;;;;;;26.97;100.00;101805.78;5201273;28;20064;-74
2022/08/24 09:45:22;;;;;;;20.35;12.45;;;;;;;27.05;100.00;101808.06;5201069;28;20029;-73
2022/08/24 09:48:03;;;;;;;21.55;12.95;;;;;;;27.12;100.00;101810.69;5201623;28;20103;-73
2022/08/24 09:51:01;;;;;;;19.10;11.63;;;;;;;27.14;100.00;101814.84;5200981;28;20230;-73
2022/08/24 09:54:06;;;;;;;25.48;13.27;;;;;;;27.12;100.00;101810.69;5200826;28;20390;-73
2022/08/24 09:56:47;;;;;;;16.75;11.00;;;;;;;27.10;100.00;101810.94;5192481;28;20069;-73
2022/08/24 09:59:42;;;;;;;17.02;10.55;;;;;;;27.03;100.00;101813.00;5188027;28;20028;-72
2022/08/24 10:02:50;;;;;;;14.85;9.10;;;;;;;27.12;100.00;101806.03;5201421;28;20169;-72
2022/08/24 10:05:30;;;;;;;15.85;10.73;;;;;;;27.22;100.00;101808.91;5200789;28;20037;-73
2022/08/24 10:08:27;;;;;;;15.45;11.20;;;;;;;27.65;100.00;101801.75;5201757;28;20068;-73
2022/08/24 10:11:35;;;;;;;18.83;10.52;;;;;;;28.27;100.00;101795.81;5190284;28;20021;-72
2022/08/24 10:14:24;;;;;;;15.07;10.27;;;;;;;28.81;100.00;101804.00;5189378;28;20495;-74
2022/08/24 10:17:27;;;;;;;17.27;9.90;;;;;;;29.48;100.00;101802.50;5201028;28;20056;-72
2022/08/24 10:19:57;;;;;;;13.32;8.13;;;;;;;30.08;100.00;101800.22;5200733;28;20041;-73
2022/08/24 10:22:46;;;;;;;11.07;7.43;;;;;;;30.68;100.00;101790.31;5201079;28;20074;-73
2022/08/24 10:25:17;;;;;;;14.40;6.90;;;;;;;30.89;100.00;101794.72;5200802;28;20036;-72
2022/08/24 10:28:17;;;;;;;12.40;7.20;;;;;;;30.89;100.00;101794.72;5200824;28;20025;-73
2022/08/24 10:31:08;;;;;;;10.20;6.43;;;;;;;31.06;100.00;101783.31;5193509;28;20110;-74
2022/08/24 10:34:03;;;;;;;10.85;6.57;;;;;;;31.15;100.00;101783.56;5196175;28;20024;-73
2022/08/24 10:36:43;;;;;;;9.90;7.35;;;;;;;31.11;100.00;101782.47;5202188;28;20033;-73
2022/08/24 10:39:41;;;;;;;11.60;5.45;;;;;;;31.35;100.00;101778.00;5200096;28;20116;-74
2022/08/24 10:45:45;;;;;;;10.40;4.70;;;;;;;31.49;92.92;101777.38;5202146;28;20029;-73
2022/08/24 10:48:34;;;;;;;8.35;3.67;;;;;;;31.60;89.59;101771.50;5202650;28;20076;-73
2022/08/24 10:51:35;;;;;;;7.43;4.18;;;;;;;31.63;89.31;101768.16;5205691;28;20033;-74
2022/08/24 10:54:10;;;;;;;9.52;3.70;;;;;;;31.68;89.73;101773.69;5206144;28;20022;-75
2022/08/24 10:56:47;;;;;;;;;;;;;;;31.66;86.08;101767.56;5207263;28;20112;-73
2022/08/24 10:59:40;;;;;;;8.38;3.67;;;;;;;31.95;89.45;101755.78;5192948;28;19909;-73
2022/08/24 11:02:31;;;;;;;10.38;3.53;;;;;;;31.94;85.58;101754.13;5206100;28;20033;-73
2022/08/24 11:05:07;;;;;;;4.03;2.72;;;;;;;31.54;83.68;101750.47;5205513;28;20031;-74
2022/08/24 11:07:58;;;;;;;7.30;2.85;;;;;;;31.63;85.26;101743.19;5206464;28;20033;-74
2022/08/24 11:10:33;;;;;;;7.25;3.63;;;;;;;31.67;86.02;101749.81;5205414;28;20109;-73
2022/08/24 11:13:20;;;;;;;10.75;3.50;;;;;;;31.78;86.04;101752.50;5206256;28;20026;-74
2022/08/24 11:15:54;;;;;;;7.35;3.05;;;;;;;31.81;81.91;101749.19;5205487;28;20063;-74
2022/08/24 11:18:25;;;;;;;7.20;2.80;;;;;;;31.97;86.86;101739.66;5205991;28;20040;-73
2022/08/24 11:20:56;;;;;;;8.60;3.38;;;;;;;32.00;82.63;101739.09;5206156;28;20091;-74
2022/08/24 11:23:35;;;;;;;5.65;3.35;;;;;;;31.68;84.75;101734.03;5205948;28;20029;-74
2022/08/24 11:26:21;;;;;;;5.93;2.85;;;;;;;31.61;83.03;101733.50;5205518;28;20075;-73
2022/08/24 11:28:56;;;;;;;11.93;3.58;;;;;;;31.46;82.06;101738.00;5201643;28;20037;-73
2022/08/24 11:31:33;;;;;;;7.40;2.95;;;;;;;31.47;82.62;101738.81;5206294;28;20481;-73
2022/08/24 11:34:08;;;;;;;4.82;2.53;;;;;;;31.60;84.57;101732.66;5206106;28;20451;-74
2022/08/24 11:36:39;;;;;;;6.63;2.63;;;;;;;31.82;83.16;101729.50;5193540;28;20087;-73
2022/08/24 11:39:20;;;;;;;7.75;3.10;;;;;;;32.01;82.54;101726.03;5205016;28;20116;-74
2022/08/24 11:42:20;;;;;;;6.35;2.60;;;;;;;32.02;80.55;101720.19;5205709;28;20025;-74
2022/08/24 11:45:01;;;;;;;6.82;2.38;;;;;;;32.34;77.90;101714.09;5205171;28;20438;-73
2022/08/24 11:47:38;;;;;;;8.57;2.58;;;;;;;32.25;78.05;101712.25;5205603;28;20487;-74
2022/08/24 11:50:25;;;;;;;7.90;2.55;;;;;;;32.06;77.01;101712.94;5205726;28;20029;-74
2022/08/24 11:53:07;;;;;;;4.18;2.65;;;;;;;31.91;78.83;101708.34;5193391;28;20360;-74
2022/08/24 11:56:14;;;;;;;3.58;2.30;;;;;;;31.96;75.01;101704.72;5203929;28;20037;-74
2022/08/24 11:59:00;;;;;;;6.90;2.03;;;;;;;32.22;75.17;101695.03;5205642;28;20115;-74
2022/08/24 12:02:02;;;;;;;11.05;2.35;;;;;;;32.03;75.44;101696.03;5204608;28;20526;-73
2022/08/24 12:04:57;;;;;;;4.82;2.38;;;;;;;31.87;76.47;101703.66;5194321;28;20037;-74